ETSN

Neuburg Airport

Germany
METAR ETSN 172020Z 00000KT 1800 SN BR BKN005 OVC015 M00/M01 Q1020 BLACKYLO
Observed Flight Rules
Feb-17 @ 20:20 UTC (an hour ago) Instrument Flight Rules
Wind Visibility Clouds Conditions
Calm 1,802 meters
  • Broken at 500' AGL
  • Overcast at 1,500' AGL
  • Snow
  • Mist
Temperatures Readings
Current 0°C / 32°F
Dewpoint -1°C / 30°F
Humidity 93%
Altimeter 30.12" Hg
Pressure 1020 hPa
Elevation 387
METAR ETSN 172020Z 00000KT 1800 SN BR BKN005 OVC015 M00/M01 Q1020 BLACKYLO
Observed Flight Rules
Feb-17 @ 20:20 UTC
(an hour ago)
IFR
Wind Visibility
Calm 1,802 meters
Clouds
  • Broken at 500' AGL
  • Overcast at 1,500' AGL
Conditions
  • Snow
  • Mist
Temperature Dewpoint
0°C / 32°F -1°C / 30°F
Humidity Altimeter Pressure
93% 30.12" Hg 1020 hPa